sensor_id;sensor_type;location;lat;lon;timestamp;pressure;altitude;pressure_sealevel;temperature
40624;BMP280;26325;48.594;11.650;2023-02-22T00:00:51;96637.69;;;3.69
40624;BMP280;26325;48.594;11.650;2023-02-22T00:03:26;96633.75;;;3.73
40624;BMP280;26325;48.594;11.650;2023-02-22T00:05:54;96638.06;;;3.72
40624;BMP280;26325;48.594;11.650;2023-02-22T00:08:24;96622.94;;;3.71
40624;BMP280;26325;48.594;11.650;2023-02-22T00:10:50;96632.38;;;3.64
40624;BMP280;26325;48.594;11.650;2023-02-22T00:13:17;96615.88;;;3.60
40624;BMP280;26325;48.594;11.650;2023-02-22T00:15:43;96620.75;;;3.61
40624;BMP280;26325;48.594;11.650;2023-02-22T00:18:12;96630.03;;;3.69
40624;BMP280;26325;48.594;11.650;2023-02-22T00:20:49;96625.50;;;3.77
40624;BMP280;26325;48.594;11.650;2023-02-22T00:23:22;96618.03;;;3.69
40624;BMP280;26325;48.594;11.650;2023-02-22T00:25:49;96620.59;;;3.76
40624;BMP280;26325;48.594;11.650;2023-02-22T00:28:18;96616.66;;;3.67
40624;BMP280;26325;48.594;11.650;2023-02-22T00:30:46;96619.78;;;3.56
40624;BMP280;26325;48.594;11.650;2023-02-22T00:33:14;96617.25;;;3.43
40624;BMP280;26325;48.594;11.650;2023-02-22T00:35:41;96612.91;;;3.50
40624;BMP280;26325;48.594;11.650;2023-02-22T00:38:10;96611.94;;;3.51
40624;BMP280;26325;48.594;11.650;2023-02-22T00:40:36;96609.59;;;3.50
40624;BMP280;26325;48.594;11.650;2023-02-22T00:43:08;96617.44;;;3.42
40624;BMP280;26325;48.594;11.650;2023-02-22T00:45:36;96613.69;;;3.38
40624;BMP280;26325;48.594;11.650;2023-02-22T00:48:04;96613.88;;;3.30
40624;BMP280;26325;48.594;11.650;2023-02-22T00:50:34;96612.31;;;3.36
40624;BMP280;26325;48.594;11.650;2023-02-22T00:53:07;96612.31;;;3.36
40624;BMP280;26325;48.594;11.650;2023-02-22T00:55:36;96598.56;;;3.30
40624;BMP280;26325;48.594;11.650;2023-02-22T00:58:03;96601.13;;;3.18
40624;BMP280;26325;48.594;11.650;2023-02-22T01:00:40;96604.03;;;3.08
40624;BMP280;26325;48.594;11.650;2023-02-22T01:03:08;96604.03;;;3.08
40624;BMP280;26325;48.594;11.650;2023-02-22T01:05:35;96595.97;;;3.11
40624;BMP280;26325;48.594;11.650;2023-02-22T01:08:03;96601.88;;;3.12
40624;BMP280;26325;48.594;11.650;2023-02-22T01:10:31;96605.22;;;3.12
40624;BMP280;26325;48.594;11.650;2023-02-22T01:12:58;96596.19;;;3.22
40624;BMP280;26325;48.594;11.650;2023-02-22T01:15:26;96598.75;;;3.29
40624;BMP280;26325;48.594;11.650;2023-02-22T01:17:55;96596.19;;;3.29
40624;BMP280;26325;48.594;11.650;2023-02-22T01:20:22;96589.50;;;3.28
40624;BMP280;26325;48.594;11.650;2023-02-22T01:22:51;96584.41;;;3.15
40624;BMP280;26325;48.594;11.650;2023-02-22T01:25:25;96594.22;;;2.99
40624;BMP280;26325;48.594;11.650;2023-02-22T01:27:53;96589.72;;;3.07
40624;BMP280;26325;48.594;11.650;2023-02-22T01:30:23;96585.56;;;3.06
40624;BMP280;26325;48.594;11.650;2023-02-22T01:32:49;96590.25;;;2.97
40624;BMP280;26325;48.594;11.650;2023-02-22T01:35:17;96583.59;;;2.96
40624;BMP280;26325;48.594;11.650;2023-02-22T01:37:43;96578.13;;;2.99
40624;BMP280;26325;48.594;11.650;2023-02-22T01:40:17;96570.84;;;3.02
40624;BMP280;26325;48.594;11.650;2023-02-22T01:42:46;96567.72;;;3.06
40624;BMP280;26325;48.594;11.650;2023-02-22T01:48:10;96558.50;;;3.05
40624;BMP280;26325;48.594;11.650;2023-02-22T01:50:41;96562.81;;;3.05
40624;BMP280;26325;48.594;11.650;2023-02-22T01:53:10;96562.00;;;3.11
40624;BMP280;26325;48.594;11.650;2023-02-22T01:55:38;96559.88;;;3.08
40624;BMP280;26325;48.594;11.650;2023-02-22T01:58:03;96562.00;;;3.04
40624;BMP280;26325;48.594;11.650;2023-02-22T02:00:33;96554.16;;;3.00
40624;BMP280;26325;48.594;11.650;2023-02-22T02:03:09;96553.19;;;3.01
40624;BMP280;26325;48.594;11.650;2023-02-22T02:05:37;96553.56;;;2.98
40624;BMP280;26325;48.594;11.650;2023-02-22T02:08:23;96549.63;;;2.89
40624;BMP280;26325;48.594;11.650;2023-02-22T02:10:53;96552.97;;;2.83
40624;BMP280;26325;48.594;11.650;2023-02-22T02:13:19;96561.19;;;2.79
40624;BMP280;26325;48.594;11.650;2023-02-22T02:15:45;96553.34;;;2.80
40624;BMP280;26325;48.594;11.650;2023-02-22T02:18:14;96559.41;;;2.66
40624;BMP280;26325;48.594;11.650;2023-02-22T02:20:45;96557.25;;;2.76
40624;BMP280;26325;48.594;11.650;2023-02-22T02:35:03;96539.19;;;2.71
40624;BMP280;26325;48.594;11.650;2023-02-22T02:42:46;96537.25;;;2.73
40624;BMP280;26325;48.594;11.650;2023-02-22T02:45:24;96530.94;;;2.69
40624;BMP280;26325;48.594;11.650;2023-02-22T02:47:53;96539.16;;;2.59
40624;BMP280;26325;48.594;11.650;2023-02-22T02:50:30;96539.19;;;2.65
40624;BMP280;26325;48.594;11.650;2023-02-22T02:53:00;96529.00;;;2.65
40624;BMP280;26325;48.594;11.650;2023-02-22T02:55:28;96535.44;;;2.61
40624;BMP280;26325;48.594;11.650;2023-02-22T02:57:54;96529.13;;;2.51
40624;BMP280;26325;48.594;11.650;2023-02-22T03:00:21;96519.16;;;2.49
40624;BMP280;26325;48.594;11.650;2023-02-22T03:16:30;96510.13;;;2.60
40624;BMP280;26325;48.594;11.650;2023-02-22T03:24:30;96505.41;;;2.50
40624;BMP280;26325;48.594;11.650;2023-02-22T03:27:06;96499.94;;;2.53
40624;BMP280;26325;48.594;11.650;2023-02-22T03:29:38;96507.38;;;2.55
40624;BMP280;26325;48.594;11.650;2023-02-22T03:32:09;96503.44;;;2.59
40624;BMP280;26325;48.594;11.650;2023-02-22T03:34:44;96503.44;;;2.52
40624;BMP280;26325;48.594;11.650;2023-02-22T03:37:33;96499.88;;;2.34
40624;BMP280;26325;48.594;11.650;2023-02-22T03:39:59;96510.06;;;2.34
40624;BMP280;26325;48.594;11.650;2023-02-22T03:42:32;96508.53;;;2.40
40624;BMP280;26325;48.594;11.650;2023-02-22T03:45:00;96514.78;;;2.37
40624;BMP280;26325;48.594;11.650;2023-02-22T03:47:32;96509.28;;;2.34
40624;BMP280;26325;48.594;11.650;2023-02-22T03:52:34;96514.59;;;2.39
40624;BMP280;26325;48.594;11.650;2023-02-22T03:55:00;96505.38;;;2.31
40624;BMP280;26325;48.594;11.650;2023-02-22T03:57:29;96516.72;;;2.35
40624;BMP280;26325;48.594;11.650;2023-02-22T03:59:56;96516.72;;;2.35
40624;BMP280;26325;48.594;11.650;2023-02-22T04:02:21;96520.84;;;2.30
40624;BMP280;26325;48.594;11.650;2023-02-22T04:04:48;96527.91;;;2.34
40624;BMP280;26325;48.594;11.650;2023-02-22T04:07:16;96518.06;;;2.25
40624;BMP280;26325;48.594;11.650;2023-02-22T04:09:41;96519.63;;;2.20
40624;BMP280;26325;48.594;11.650;2023-02-22T04:12:07;96516.09;;;2.21
40624;BMP280;26325;48.594;11.650;2023-02-22T04:14:35;96524.91;;;2.25
40624;BMP280;26325;48.594;11.650;2023-02-22T04:17:03;96529.63;;;2.21
40624;BMP280;26325;48.594;11.650;2023-02-22T04:19:29;96519.63;;;2.20
40624;BMP280;26325;48.594;11.650;2023-02-22T04:21:54;96527.63;;;2.17
40624;BMP280;26325;48.594;11.650;2023-02-22T04:24:22;96531.94;;;2.16
40624;BMP280;26325;48.594;11.650;2023-02-22T04:26:49;96526.84;;;2.10
40624;BMP280;26325;48.594;11.650;2023-02-22T04:29:15;96528.78;;;2.08
40624;BMP280;26325;48.594;11.650;2023-02-22T04:31:41;96531.72;;;2.05
40624;BMP280;26325;48.594;11.650;2023-02-22T04:34:13;96524.44;;;2.02
40624;BMP280;26325;48.594;11.650;2023-02-22T04:36:40;96522.31;;;2.06
40624;BMP280;26325;48.594;11.650;2023-02-22T04:39:08;96524.50;;;2.15
40624;BMP280;26325;48.594;11.650;2023-02-22T04:41:35;96520.81;;;2.24
40624;BMP280;26325;48.594;11.650;2023-02-22T04:44:00;96515.16;;;2.34
40624;BMP280;26325;48.594;11.650;2023-02-22T04:46:26;96515.16;;;2.34
40624;BMP280;26325;48.594;11.650;2023-02-22T04:48:52;96507.09;;;2.25
40624;BMP280;26325;48.594;11.650;2023-02-22T04:51:27;96504.94;;;2.22
40624;BMP280;26325;48.594;11.650;2023-02-22T04:53:57;96502.81;;;2.31
40624;BMP280;26325;48.594;11.650;2023-02-22T04:56:23;96508.88;;;2.30
40624;BMP280;26325;48.594;11.650;2023-02-22T04:58:53;96497.91;;;2.24
40624;BMP280;26325;48.594;11.650;2023-02-22T05:01:20;96501.78;;;2.20
40624;BMP280;26325;48.594;11.650;2023-02-22T05:04:05;96493.16;;;2.21
40624;BMP280;26325;48.594;11.650;2023-02-22T05:06:30;96498.63;;;2.18
40624;BMP280;26325;48.594;11.650;2023-02-22T05:08:58;96499.06;;;2.21
40624;BMP280;26325;48.594;11.650;2023-02-22T05:11:24;96494.56;;;2.29
40624;BMP280;26325;48.594;11.650;2023-02-22T05:13:49;96498.69;;;2.37
40624;BMP280;26325;48.594;11.650;2023-02-22T05:16:15;96483.03;;;2.40
40624;BMP280;26325;48.594;11.650;2023-02-22T05:18:42;96489.91;;;2.39
40624;BMP280;26325;48.594;11.650;2023-02-22T05:21:08;96493.97;;;2.34
40624;BMP280;26325;48.594;11.650;2023-02-22T05:23:35;96489.25;;;2.25
40624;BMP280;26325;48.594;11.650;2023-02-22T05:26:02;96495.53;;;2.28
40624;BMP280;26325;48.594;11.650;2023-02-22T05:28:28;96485.34;;;2.28
40624;BMP280;26325;48.594;11.650;2023-02-22T05:30:56;96486.13;;;2.23
40624;BMP280;26325;48.594;11.650;2023-02-22T05:33:21;96483.34;;;2.18
40624;BMP280;26325;48.594;11.650;2023-02-22T05:35:47;96481.41;;;2.20
40624;BMP280;26325;48.594;11.650;2023-02-22T05:38:13;96479.81;;;2.19
40624;BMP280;26325;48.594;11.650;2023-02-22T05:40:40;96480.81;;;2.18
40624;BMP280;26325;48.594;11.650;2023-02-22T05:43:08;96483.94;;;2.20
40624;BMP280;26325;48.594;11.650;2023-02-22T05:45:37;96483.16;;;2.19
40624;BMP280;26325;48.594;11.650;2023-02-22T05:48:03;96480.06;;;2.24
40624;BMP280;26325;48.594;11.650;2023-02-22T05:50:32;96467.34;;;2.36
40624;BMP280;26325;48.594;11.650;2023-02-22T05:52:57;96471.28;;;2.39
40624;BMP280;26325;48.594;11.650;2023-02-22T05:55:23;96464.78;;;2.30
40624;BMP280;26325;48.594;11.650;2023-02-22T05:57:49;96468.66;;;2.20
40624;BMP280;26325;48.594;11.650;2023-02-22T06:00:19;96472.41;;;2.24
40624;BMP280;26325;48.594;11.650;2023-02-22T06:03:02;96463.00;;;2.30
40624;BMP280;26325;48.594;11.650;2023-02-22T06:05:30;96468.84;;;2.25
40624;BMP280;26325;48.594;11.650;2023-02-22T06:07:56;96481.41;;;2.20
40624;BMP280;26325;48.594;11.650;2023-02-22T06:10:23;96480.19;;;2.16
40624;BMP280;26325;48.594;11.650;2023-02-22T06:12:52;96475.09;;;2.16
40624;BMP280;26325;48.594;11.650;2023-02-22T06:15:24;96471.22;;;2.20
40624;BMP280;26325;48.594;11.650;2023-02-22T06:17:55;96478.66;;;2.21
40624;BMP280;26325;48.594;11.650;2023-02-22T06:20:29;96470.47;;;2.32
40624;BMP280;26325;48.594;11.650;2023-02-22T06:22:56;96478.69;;;2.28
40624;BMP280;26325;48.594;11.650;2023-02-22T06:25:24;96477.88;;;2.21
40624;BMP280;26325;48.594;11.650;2023-02-22T06:27:52;96488.44;;;2.11
40624;BMP280;26325;48.594;11.650;2023-02-22T06:30:21;96494.69;;;2.09
40624;BMP280;26325;48.594;11.650;2023-02-22T06:32:46;96487.03;;;2.03
40624;BMP280;26325;48.594;11.650;2023-02-22T06:35:18;96485.53;;;2.21
40624;BMP280;26325;48.594;11.650;2023-02-22T06:37:44;96483.59;;;2.42
40624;BMP280;26325;48.594;11.650;2023-02-22T06:40:14;96485.41;;;2.54
40624;BMP280;26325;48.594;11.650;2023-02-22T06:42:42;96489.34;;;2.75
40624;BMP280;26325;48.594;11.650;2023-02-22T06:45:11;96489.56;;;2.80
40624;BMP280;26325;48.594;11.650;2023-02-22T06:47:38;96488.97;;;2.78
40624;BMP280;26325;48.594;11.650;2023-02-22T06:50:04;96491.75;;;2.89
40624;BMP280;26325;48.594;11.650;2023-02-22T06:52:30;96487.41;;;3.03
40624;BMP280;26325;48.594;11.650;2023-02-22T06:54:57;96487.84;;;3.25
40624;BMP280;26325;48.594;11.650;2023-02-22T06:57:23;96487.00;;;3.50
40624;BMP280;26325;48.594;11.650;2023-02-22T06:59:53;96489.25;;;3.89
40624;BMP280;26325;48.594;11.650;2023-02-22T07:02:27;96483.44;;;4.62
40624;BMP280;26325;48.594;11.650;2023-02-22T07:04:57;96484.09;;;5.53
40624;BMP280;26325;48.594;11.650;2023-02-22T07:07:22;96479.69;;;6.19
40624;BMP280;26325;48.594;11.650;2023-02-22T07:09:49;96476.44;;;7.09
40624;BMP280;26325;48.594;11.650;2023-02-22T07:12:14;96478.06;;;7.55
40624;BMP280;26325;48.594;11.650;2023-02-22T07:14:40;96480.28;;;7.97
40624;BMP280;26325;48.594;11.650;2023-02-22T07:17:05;96477.16;;;8.17
40624;BMP280;26325;48.594;11.650;2023-02-22T07:19:33;96467.59;;;8.29
40624;BMP280;26325;48.594;11.650;2023-02-22T07:21:58;96464.22;;;8.39
40624;BMP280;26325;48.594;11.650;2023-02-22T07:24:27;96467.69;;;8.88
40624;BMP280;26325;48.594;11.650;2023-02-22T07:26:54;96461.03;;;9.35
40624;BMP280;26325;48.594;11.650;2023-02-22T07:29:20;96464.53;;;9.46
40624;BMP280;26325;48.594;11.650;2023-02-22T07:31:48;96460.97;;;10.21
40624;BMP280;26325;48.594;11.650;2023-02-22T07:34:17;96466.84;;;10.16
40624;BMP280;26325;48.594;11.650;2023-02-22T07:36:45;96467.88;;;10.15
40624;BMP280;26325;48.594;11.650;2023-02-22T07:39:10;96466.72;;;9.86
40624;BMP280;26325;48.594;11.650;2023-02-22T07:41:36;96466.16;;;9.84
40624;BMP280;26325;48.594;11.650;2023-02-22T07:44:03;96466.28;;;9.93
40624;BMP280;26325;48.594;11.650;2023-02-22T07:46:29;96459.31;;;9.41
40624;BMP280;26325;48.594;11.650;2023-02-22T07:48:56;96455.84;;;9.03
40624;BMP280;26325;48.594;11.650;2023-02-22T07:51:22;96461.66;;;9.26
40624;BMP280;26325;48.594;11.650;2023-02-22T07:53:48;96462.00;;;9.83
40624;BMP280;26325;48.594;11.650;2023-02-22T07:56:13;96462.66;;;10.31
40624;BMP280;26325;48.594;11.650;2023-02-22T07:58:40;96453.28;;;10.26
40624;BMP280;26325;48.594;11.650;2023-02-22T08:01:07;96448.78;;;10.37
40624;BMP280;26325;48.594;11.650;2023-02-22T08:03:33;96451.38;;;10.37
40624;BMP280;26325;48.594;11.650;2023-02-22T08:06:01;96444.75;;;10.46
40624;BMP280;26325;48.594;11.650;2023-02-22T08:08:27;96451.00;;;10.50
40624;BMP280;26325;48.594;11.650;2023-02-22T08:10:53;96440.94;;;11.00
40624;BMP280;26325;48.594;11.650;2023-02-22T08:13:19;96438.69;;;11.75
40624;BMP280;26325;48.594;11.650;2023-02-22T08:15:46;96440.34;;;12.45
40624;BMP280;26325;48.594;11.650;2023-02-22T08:18:16;96430.91;;;12.90
40624;BMP280;26325;48.594;11.650;2023-02-22T08:20:43;96424.66;;;12.95
40624;BMP280;26325;48.594;11.650;2023-02-22T08:23:10;96429.56;;;12.92
40624;BMP280;26325;48.594;11.650;2023-02-22T08:25:35;96440.22;;;12.81
40624;BMP280;26325;48.594;11.650;2023-02-22T08:28:06;96427.78;;;12.93
40624;BMP280;26325;48.594;11.650;2023-02-22T08:30:35;96428.56;;;13.03
40624;BMP280;26325;48.594;11.650;2023-02-22T08:33:01;96425.72;;;13.29
40624;BMP280;26325;48.594;11.650;2023-02-22T08:35:27;96430.91;;;13.58
40624;BMP280;26325;48.594;11.650;2023-02-22T08:37:56;96423.63;;;13.45
40624;BMP280;26325;48.594;11.650;2023-02-22T08:40:27;96417.41;;;13.17
40624;BMP280;26325;48.594;11.650;2023-02-22T08:42:55;96421.56;;;13.37
40624;BMP280;26325;48.594;11.650;2023-02-22T08:45:31;96424.66;;;13.93
40624;BMP280;26325;48.594;11.650;2023-02-22T08:47:57;96423.59;;;13.79
40624;BMP280;26325;48.594;11.650;2023-02-22T08:50:27;96423.09;;;13.82
40624;BMP280;26325;48.594;11.650;2023-02-22T08:52:57;96412.56;;;14.31
40624;BMP280;26325;48.594;11.650;2023-02-22T08:55:27;96417.00;;;14.21
40624;BMP280;26325;48.594;11.650;2023-02-22T08:57:54;96427.19;;;14.03
40624;BMP280;26325;48.594;11.650;2023-02-22T09:00:22;96421.50;;;14.10
40624;BMP280;26325;48.594;11.650;2023-02-22T09:02:51;96417.75;;;14.31
40624;BMP280;26325;48.594;11.650;2023-02-22T09:05:20;96413.91;;;14.24
40624;BMP280;26325;48.594;11.650;2023-02-22T09:08:00;96411.22;;;14.95
40624;BMP280;26325;48.594;11.650;2023-02-22T09:10:32;96406.88;;;15.19
40624;BMP280;26325;48.594;11.650;2023-02-22T09:13:01;96414.69;;;15.19
40624;BMP280;26325;48.594;11.650;2023-02-22T09:15:28;96410.97;;;15.24
40624;BMP280;26325;48.594;11.650;2023-02-22T09:17:56;96406.00;;;15.61
40624;BMP280;26325;48.594;11.650;2023-02-22T09:20:23;96412.81;;;14.34
40624;BMP280;26325;48.594;11.650;2023-02-22T09:22:48;96416.25;;;14.15
40624;BMP280;26325;48.594;11.650;2023-02-22T09:25:15;96405.34;;;14.18
40624;BMP280;26325;48.594;11.650;2023-02-22T09:27:40;96405.44;;;13.89
40624;BMP280;26325;48.594;11.650;2023-02-22T09:30:10;96404.91;;;13.77
40624;BMP280;26325;48.594;11.650;2023-02-22T09:32:39;96406.50;;;13.73
40624;BMP280;26325;48.594;11.650;2023-02-22T09:35:05;96404.91;;;13.82
40624;BMP280;26325;48.594;11.650;2023-02-22T09:37:33;96393.19;;;14.09
40624;BMP280;26325;48.594;11.650;2023-02-22T09:39:58;96399.69;;;13.97
40624;BMP280;26325;48.594;11.650;2023-02-22T09:42:33;96392.16;;;14.57
40624;BMP280;26325;48.594;11.650;2023-02-22T09:45:12;96388.75;;;14.67
40624;BMP280;26325;48.594;11.650;2023-02-22T09:47:40;96381.19;;;15.12
40624;BMP280;26325;48.594;11.650;2023-02-22T09:50:21;96380.78;;;15.28
40624;BMP280;26325;48.594;11.650;2023-02-22T09:52:58;96381.47;;;15.06
40624;BMP280;26325;48.594;11.650;2023-02-22T09:57:58;96378.06;;;15.66
40624;BMP280;26325;48.594;11.650;2023-02-22T10:00:31;96380.75;;;15.84
40624;BMP280;26325;48.594;11.650;2023-02-22T10:03:22;96365.03;;;15.94
40624;BMP280;26325;48.594;11.650;2023-02-22T10:06:01;96365.25;;;16.61
40624;BMP280;26325;48.594;11.650;2023-02-22T10:08:31;96366.13;;;17.11
40624;BMP280;26325;48.594;11.650;2023-02-22T10:17:09;96364.63;;;17.05
40624;BMP280;26325;48.594;11.650;2023-02-22T10:19:42;96358.81;;;17.70
40624;BMP280;26325;48.594;11.650;2023-02-22T10:22:33;96366.47;;;16.27
40624;BMP280;26325;48.594;11.650;2023-02-22T10:25:04;96359.28;;;15.97
40624;BMP280;26325;48.594;11.650;2023-02-22T10:27:47;96368.06;;;15.78
40624;BMP280;26325;48.594;11.650;2023-02-22T10:30:23;96356.00;;;15.36
40624;BMP280;26325;48.594;11.650;2023-02-22T10:33:17;96345.91;;;15.29
40624;BMP280;26325;48.594;11.650;2023-02-22T10:35:44;96350.25;;;15.06
40624;BMP280;26325;48.594;11.650;2023-02-22T10:38:16;96337.53;;;15.83
40624;BMP280;26325;48.594;11.650;2023-02-22T10:40:54;96348.19;;;16.09
40624;BMP280;26325;48.594;11.650;2023-02-22T10:43:23;96337.19;;;16.53
40624;BMP280;26325;48.594;11.650;2023-02-22T10:45:51;96340.88;;;16.11
40624;BMP280;26325;48.594;11.650;2023-02-22T10:48:20;96332.63;;;16.81
40624;BMP280;26325;48.594;11.650;2023-02-22T10:50:46;96337.81;;;17.17
40624;BMP280;26325;48.594;11.650;2023-02-22T10:53:13;96327.84;;;17.37
40624;BMP280;26325;48.594;11.650;2023-02-22T10:58:39;96332.31;;;17.63
40624;BMP280;26325;48.594;11.650;2023-02-22T11:06:39;96323.81;;;17.71
40624;BMP280;26325;48.594;11.650;2023-02-22T11:09:11;96318.88;;;17.70
40624;BMP280;26325;48.594;11.650;2023-02-22T11:11:40;96304.09;;;17.92
40624;BMP280;26325;48.594;11.650;2023-02-22T11:14:06;96305.81;;;17.70
40624;BMP280;26325;48.594;11.650;2023-02-22T11:16:53;96313.63;;;17.56
40624;BMP280;26325;48.594;11.650;2023-02-22T11:19:33;96305.94;;;18.04
40624;BMP280;26325;48.594;11.650;2023-02-22T11:22:11;96287.97;;;18.37
40624;BMP280;26325;48.594;11.650;2023-02-22T11:24:46;96293.09;;;17.94
40624;BMP280;26325;48.594;11.650;2023-02-22T11:27:44;96287.09;;;17.94
40624;BMP280;26325;48.594;11.650;2023-02-22T11:30:30;96285.81;;;17.92
40624;BMP280;26325;48.594;11.650;2023-02-22T11:33:03;96286.41;;;17.89
40624;BMP280;26325;48.594;11.650;2023-02-22T11:40:46;96284.41;;;17.28
40624;BMP280;26325;48.594;11.650;2023-02-22T11:43:20;96271.53;;;18.37
40624;BMP280;26325;48.594;11.650;2023-02-22T11:46:02;96266.69;;;19.00
40624;BMP280;26325;48.594;11.650;2023-02-22T11:48:30;96262.59;;;18.94
40624;BMP280;26325;48.594;11.650;2023-02-22T11:56:47;96255.00;;;19.06
40624;BMP280;26325;48.594;11.650;2023-02-22T12:02:29;96252.56;;;19.68
40624;BMP280;26325;48.594;11.650;2023-02-22T12:20:51;96246.16;;;21.48
40624;BMP280;26325;48.594;11.650;2023-02-22T12:37:27;96218.50;;;20.81
40624;BMP280;26325;48.594;11.650;2023-02-22T12:45:03;96221.31;;;21.38
40624;BMP280;26325;48.594;11.650;2023-02-22T12:47:41;96218.25;;;22.00
40624;BMP280;26325;48.594;11.650;2023-02-22T12:50:24;96219.09;;;21.84
40624;BMP280;26325;48.594;11.650;2023-02-22T12:55:30;96211.09;;;22.29
40624;BMP280;26325;48.594;11.650;2023-02-22T12:58:08;96198.31;;;23.11
40624;BMP280;26325;48.594;11.650;2023-02-22T13:01:00;96203.66;;;23.58
40624;BMP280;26325;48.594;11.650;2023-02-22T13:03:37;96203.22;;;23.32
40624;BMP280;26325;48.594;11.650;2023-02-22T13:15:04;96191.69;;;23.84
40624;BMP280;26325;48.594;11.650;2023-02-22T13:17:40;96194.09;;;22.47
40624;BMP280;26325;48.594;11.650;2023-02-22T13:23:18;96181.09;;;22.70
40624;BMP280;26325;48.594;11.650;2023-02-22T13:25:52;96179.16;;;22.59
40624;BMP280;26325;48.594;11.650;2023-02-22T13:34:26;96175.09;;;21.73
40624;BMP280;26325;48.594;11.650;2023-02-22T13:52:33;96160.53;;;23.62
40624;BMP280;26325;48.594;11.650;2023-02-22T13:55:05;96161.06;;;23.67
40624;BMP280;26325;48.594;11.650;2023-02-22T13:57:45;96156.69;;;23.71
40624;BMP280;26325;48.594;11.650;2023-02-22T14:00:42;96159.50;;;24.25
40624;BMP280;26325;48.594;11.650;2023-02-22T14:13:20;96148.53;;;22.54
40624;BMP280;26325;48.594;11.650;2023-02-22T14:18:44;96151.81;;;20.65
40624;BMP280;26325;48.594;11.650;2023-02-22T14:21:18;96158.91;;;20.73
40624;BMP280;26325;48.594;11.650;2023-02-22T14:23:48;96160.31;;;20.71
40624;BMP280;26325;48.594;11.650;2023-02-22T14:32:14;96154.59;;;20.77
40624;BMP280;26325;48.594;11.650;2023-02-22T14:34:53;96152.44;;;19.96
40624;BMP280;26325;48.594;11.650;2023-02-22T14:37:29;96154.34;;;19.49
40624;BMP280;26325;48.594;11.650;2023-02-22T14:45:34;96153.03;;;18.71
40624;BMP280;26325;48.594;11.650;2023-02-22T14:48:14;96150.28;;;18.46
40624;BMP280;26325;48.594;11.650;2023-02-22T14:53:13;96147.94;;;19.17
40624;BMP280;26325;48.594;11.650;2023-02-22T14:55:46;96146.09;;;19.18
40624;BMP280;26325;48.594;11.650;2023-02-22T14:58:17;96138.53;;;19.71
40624;BMP280;26325;48.594;11.650;2023-02-22T15:00:48;96143.38;;;20.10
40624;BMP280;26325;48.594;11.650;2023-02-22T15:03:30;96143.19;;;19.74
40624;BMP280;26325;48.594;11.650;2023-02-22T15:08:44;96140.88;;;19.81
40624;BMP280;26325;48.594;11.650;2023-02-22T15:11:24;96142.88;;;19.29
40624;BMP280;26325;48.594;11.650;2023-02-22T15:13:52;96142.88;;;18.91
40624;BMP280;26325;48.594;11.650;2023-02-22T15:16:20;96138.69;;;18.82
40624;BMP280;26325;48.594;11.650;2023-02-22T15:18:47;96140.47;;;18.51
40624;BMP280;26325;48.594;11.650;2023-02-22T15:21:24;96142.91;;;18.27
40624;BMP280;26325;48.594;11.650;2023-02-22T15:23:52;96140.88;;;18.24
40624;BMP280;26325;48.594;11.650;2023-02-22T15:26:26;96140.00;;;18.28
40624;BMP280;26325;48.594;11.650;2023-02-22T15:28:57;96146.78;;;17.94
40624;BMP280;26325;48.594;11.650;2023-02-22T15:31:25;96145.06;;;17.77
40624;BMP280;26325;48.594;11.650;2023-02-22T15:33:52;96140.13;;;17.75
40624;BMP280;26325;48.594;11.650;2023-02-22T15:36:19;96146.31;;;17.79
40624;BMP280;26325;48.594;11.650;2023-02-22T15:38:50;96144.22;;;17.68
40624;BMP280;26325;48.594;11.650;2023-02-22T15:41:28;96143.75;;;17.53
40624;BMP280;26325;48.594;11.650;2023-02-22T15:46:23;96143.38;;;17.33
40624;BMP280;26325;48.594;11.650;2023-02-22T15:49:18;96138.66;;;17.22
40624;BMP280;26325;48.594;11.650;2023-02-22T15:51:44;96142.03;;;17.09
40624;BMP280;26325;48.594;11.650;2023-02-22T15:54:11;96137.78;;;17.00
40624;BMP280;26325;48.594;11.650;2023-02-22T15:56:40;96139.13;;;16.97
40624;BMP280;26325;48.594;11.650;2023-02-22T15:59:12;96141.09;;;16.87
40624;BMP280;26325;48.594;11.650;2023-02-22T16:01:41;96142.44;;;16.72
40624;BMP280;26325;48.594;11.650;2023-02-22T16:04:24;96145.22;;;16.62
40624;BMP280;26325;48.594;11.650;2023-02-22T16:06:51;96148.56;;;16.49
40624;BMP280;26325;48.594;11.650;2023-02-22T16:09:23;96151.13;;;16.36
40624;BMP280;26325;48.594;11.650;2023-02-22T16:11:51;96147.31;;;16.16
40624;BMP280;26325;48.594;11.650;2023-02-22T16:19:49;96149.16;;;15.74
40624;BMP280;26325;48.594;11.650;2023-02-22T16:22:32;96148.94;;;15.53
40624;BMP280;26325;48.594;11.650;2023-02-22T16:25:23;96150.13;;;15.42
40624;BMP280;26325;48.594;11.650;2023-02-22T16:27:54;96147.13;;;15.12
40624;BMP280;26325;48.594;11.650;2023-02-22T16:30:36;96151.41;;;14.99
40624;BMP280;26325;48.594;11.650;2023-02-22T16:33:07;96155.03;;;14.75
40624;BMP280;26325;48.594;11.650;2023-02-22T16:35:41;96149.28;;;14.50
40624;BMP280;26325;48.594;11.650;2023-02-22T16:38:16;96159.13;;;14.20
40624;BMP280;26325;48.594;11.650;2023-02-22T16:40:50;96161.91;;;13.96
40624;BMP280;26325;48.594;11.650;2023-02-22T16:43:36;96169.78;;;13.76
40624;BMP280;26325;48.594;11.650;2023-02-22T16:46:02;96158.97;;;13.60
40624;BMP280;26325;48.594;11.650;2023-02-22T16:48:30;96167.31;;;13.52
40624;BMP280;26325;48.594;11.650;2023-02-22T16:51:06;96172.34;;;13.34
40624;BMP280;26325;48.594;11.650;2023-02-22T16:53:33;96183.28;;;13.16
40624;BMP280;26325;48.594;11.650;2023-02-22T16:56:01;96178.16;;;13.07
40624;BMP280;26325;48.594;11.650;2023-02-22T16:58:27;96177.94;;;12.94
40624;BMP280;26325;48.594;11.650;2023-02-22T17:00:56;96190.94;;;12.69
40624;BMP280;26325;48.594;11.650;2023-02-22T17:03:23;96186.00;;;12.53
40624;BMP280;26325;48.594;11.650;2023-02-22T17:05:49;96181.88;;;12.38
40624;BMP280;26325;48.594;11.650;2023-02-22T17:08:15;96187.81;;;12.28
40624;BMP280;26325;48.594;11.650;2023-02-22T17:10:40;96184.72;;;12.21
40624;BMP280;26325;48.594;11.650;2023-02-22T17:13:10;96200.22;;;12.17
40624;BMP280;26325;48.594;11.650;2023-02-22T17:15:36;96190.91;;;12.01
40624;BMP280;26325;48.594;11.650;2023-02-22T17:18:09;96193.25;;;12.02
40624;BMP280;26325;48.594;11.650;2023-02-22T17:20:38;96190.88;;;11.91